sensor_id;sensor_type;location;lat;lon;timestamp;P1;durP1;ratioP1;P2;durP2;ratioP2
58017;SDS011;43810;50.860;19.226;2022-09-23T00:00:20;34.28;;;19.30;;
58017;SDS011;43810;50.860;19.226;2022-09-23T00:03:06;33.60;;;19.33;;
58017;SDS011;43810;50.860;19.226;2022-09-23T00:05:32;41.00;;;21.23;;
58017;SDS011;43810;50.860;19.226;2022-09-23T00:07:58;43.90;;;21.95;;
58017;SDS011;43810;50.860;19.226;2022-09-23T00:10:24;43.65;;;23.92;;
58017;SDS011;43810;50.860;19.226;2022-09-23T00:12:50;48.42;;;25.52;;
58017;SDS011;43810;50.860;19.226;2022-09-23T00:15:16;51.45;;;25.98;;
58017;SDS011;43810;50.860;19.226;2022-09-23T00:17:41;48.33;;;25.25;;
58017;SDS011;43810;50.860;19.226;2022-09-23T00:20:07;44.70;;;24.58;;
58017;SDS011;43810;50.860;19.226;2022-09-23T00:22:34;46.40;;;24.20;;
58017;SDS011;43810;50.860;19.226;2022-09-23T00:25:01;48.72;;;24.70;;
58017;SDS011;43810;50.860;19.226;2022-09-23T00:27:27;36.15;;;21.70;;
58017;SDS011;43810;50.860;19.226;2022-09-23T00:29:53;43.58;;;21.13;;
58017;SDS011;43810;50.860;19.226;2022-09-23T00:32:18;43.67;;;22.30;;
58017;SDS011;43810;50.860;19.226;2022-09-23T00:34:44;40.63;;;22.25;;
58017;SDS011;43810;50.860;19.226;2022-09-23T00:37:09;35.95;;;20.05;;
58017;SDS011;43810;50.860;19.226;2022-09-23T00:39:35;36.90;;;20.13;;
58017;SDS011;43810;50.860;19.226;2022-09-23T00:42:01;46.33;;;21.10;;
58017;SDS011;43810;50.860;19.226;2022-09-23T00:44:47;39.30;;;20.88;;
58017;SDS011;43810;50.860;19.226;2022-09-23T00:47:33;48.80;;;22.80;;
58017;SDS011;43810;50.860;19.226;2022-09-23T00:50:06;45.92;;;23.33;;
58017;SDS011;43810;50.860;19.226;2022-09-23T00:52:33;41.47;;;22.05;;
58017;SDS011;43810;50.860;19.226;2022-09-23T00:54:59;46.70;;;21.48;;
58017;SDS011;43810;50.860;19.226;2022-09-23T00:57:26;39.42;;;22.35;;
58017;SDS011;43810;50.860;19.226;2022-09-23T00:59:53;35.90;;;20.60;;
58017;SDS011;43810;50.860;19.226;2022-09-23T01:02:19;32.88;;;18.50;;
58017;SDS011;43810;50.860;19.226;2022-09-23T01:04:48;39.47;;;20.65;;
58017;SDS011;43810;50.860;19.226;2022-09-23T01:07:15;43.20;;;22.23;;
58017;SDS011;43810;50.860;19.226;2022-09-23T01:09:40;38.63;;;20.45;;
58017;SDS011;43810;50.860;19.226;2022-09-23T01:17:24;39.25;;;20.20;;
58017;SDS011;43810;50.860;19.226;2022-09-23T01:30:47;42.95;;;21.95;;
58017;SDS011;43810;50.860;19.226;2022-09-23T01:33:17;43.85;;;22.13;;
58017;SDS011;43810;50.860;19.226;2022-09-23T01:35:59;43.60;;;22.50;;
58017;SDS011;43810;50.860;19.226;2022-09-23T01:38:35;46.58;;;20.88;;
58017;SDS011;43810;50.860;19.226;2022-09-23T01:41:14;40.15;;;21.45;;
58017;SDS011;43810;50.860;19.226;2022-09-23T01:46:12;43.85;;;23.15;;
58017;SDS011;43810;50.860;19.226;2022-09-23T01:56:30;35.25;;;19.80;;
58017;SDS011;43810;50.860;19.226;2022-09-23T01:59:39;45.42;;;23.63;;
58017;SDS011;43810;50.860;19.226;2022-09-23T02:01:50;41.20;;;21.00;;
58017;SDS011;43810;50.860;19.226;2022-09-23T02:04:24;40.90;;;21.00;;
58017;SDS011;43810;50.860;19.226;2022-09-23T02:07:09;39.95;;;21.88;;
58017;SDS011;43810;50.860;19.226;2022-09-23T02:09:42;50.15;;;23.08;;
58017;SDS011;43810;50.860;19.226;2022-09-23T02:12:12;45.55;;;21.75;;
58017;SDS011;43810;50.860;19.226;2022-09-23T02:17:09;52.50;;;23.13;;
58017;SDS011;43810;50.860;19.226;2022-09-23T02:19:41;45.72;;;22.38;;
58017;SDS011;43810;50.860;19.226;2022-09-23T02:22:46;42.92;;;22.75;;
58017;SDS011;43810;50.860;19.226;2022-09-23T02:25:00;43.85;;;23.13;;
58017;SDS011;43810;50.860;19.226;2022-09-23T02:32:22;43.92;;;23.10;;
58017;SDS011;43810;50.860;19.226;2022-09-23T02:40:00;55.05;;;27.25;;
58017;SDS011;43810;50.860;19.226;2022-09-23T02:42:37;48.72;;;25.50;;
58017;SDS011;43810;50.860;19.226;2022-09-23T02:45:06;48.38;;;25.33;;
58017;SDS011;43810;50.860;19.226;2022-09-23T02:47:32;56.10;;;26.02;;
58017;SDS011;43810;50.860;19.226;2022-09-23T02:49:58;47.45;;;23.63;;
58017;SDS011;43810;50.860;19.226;2022-09-23T02:52:24;57.25;;;25.42;;
58017;SDS011;43810;50.860;19.226;2022-09-23T02:54:50;47.85;;;24.70;;
58017;SDS011;43810;50.860;19.226;2022-09-23T02:57:16;57.92;;;27.08;;
58017;SDS011;43810;50.860;19.226;2022-09-23T02:59:42;57.80;;;25.60;;
58017;SDS011;43810;50.860;19.226;2022-09-23T03:04:55;54.20;;;23.23;;
58017;SDS011;43810;50.860;19.226;2022-09-23T03:15:16;49.95;;;23.63;;
58017;SDS011;43810;50.860;19.226;2022-09-23T03:17:46;58.10;;;23.75;;
58017;SDS011;43810;50.860;19.226;2022-09-23T03:22:57;52.70;;;23.67;;
58017;SDS011;43810;50.860;19.226;2022-09-23T03:25:26;46.30;;;21.70;;
58017;SDS011;43810;50.860;19.226;2022-09-23T03:27:55;51.83;;;23.70;;
58017;SDS011;43810;50.860;19.226;2022-09-23T03:30:22;53.95;;;25.55;;
58017;SDS011;43810;50.860;19.226;2022-09-23T03:32:47;52.85;;;25.60;;
58017;SDS011;43810;50.860;19.226;2022-09-23T03:35:15;60.42;;;26.17;;
58017;SDS011;43810;50.860;19.226;2022-09-23T03:37:52;69.75;;;28.95;;
58017;SDS011;43810;50.860;19.226;2022-09-23T03:40:27;66.13;;;27.70;;
58017;SDS011;43810;50.860;19.226;2022-09-23T03:42:54;86.35;;;30.10;;
58017;SDS011;43810;50.860;19.226;2022-09-23T03:45:21;99.00;;;32.00;;
58017;SDS011;43810;50.860;19.226;2022-09-23T03:47:47;121.82;;;36.08;;
58017;SDS011;43810;50.860;19.226;2022-09-23T03:50:13;135.00;;;45.45;;
58017;SDS011;43810;50.860;19.226;2022-09-23T03:52:39;153.55;;;47.95;;
58017;SDS011;43810;50.860;19.226;2022-09-23T03:55:05;160.57;;;52.88;;
58017;SDS011;43810;50.860;19.226;2022-09-23T03:57:31;170.23;;;51.97;;
58017;SDS011;43810;50.860;19.226;2022-09-23T03:59:56;136.88;;;43.33;;
58017;SDS011;43810;50.860;19.226;2022-09-23T04:02:22;126.05;;;41.03;;
58017;SDS011;43810;50.860;19.226;2022-09-23T04:04:48;178.15;;;42.70;;
58017;SDS011;43810;50.860;19.226;2022-09-23T04:07:13;175.77;;;44.35;;
58017;SDS011;43810;50.860;19.226;2022-09-23T04:09:40;189.27;;;49.85;;
58017;SDS011;43810;50.860;19.226;2022-09-23T04:12:06;179.07;;;49.90;;
58017;SDS011;43810;50.860;19.226;2022-09-23T04:14:31;208.68;;;55.90;;
58017;SDS011;43810;50.860;19.226;2022-09-23T04:16:57;215.73;;;50.20;;
58017;SDS011;43810;50.860;19.226;2022-09-23T04:19:23;212.05;;;51.83;;
58017;SDS011;43810;50.860;19.226;2022-09-23T04:21:48;171.25;;;47.65;;
58017;SDS011;43810;50.860;19.226;2022-09-23T04:24:14;149.45;;;47.47;;
58017;SDS011;43810;50.860;19.226;2022-09-23T04:26:40;148.45;;;44.42;;
58017;SDS011;43810;50.860;19.226;2022-09-23T04:29:06;127.75;;;39.92;;
58017;SDS011;43810;50.860;19.226;2022-09-23T04:31:32;143.50;;;40.55;;
58017;SDS011;43810;50.860;19.226;2022-09-23T04:33:58;142.23;;;41.30;;
58017;SDS011;43810;50.860;19.226;2022-09-23T04:36:24;131.05;;;36.00;;
58017;SDS011;43810;50.860;19.226;2022-09-23T04:38:49;135.52;;;35.08;;
58017;SDS011;43810;50.860;19.226;2022-09-23T04:41:15;106.03;;;32.28;;
58017;SDS011;43810;50.860;19.226;2022-09-23T04:43:41;109.28;;;32.88;;
58017;SDS011;43810;50.860;19.226;2022-09-23T04:46:08;92.75;;;32.05;;
58017;SDS011;43810;50.860;19.226;2022-09-23T04:48:37;109.82;;;35.97;;
58017;SDS011;43810;50.860;19.226;2022-09-23T04:53:29;99.90;;;31.17;;
58017;SDS011;43810;50.860;19.226;2022-09-23T04:56:02;95.43;;;33.45;;
58017;SDS011;43810;50.860;19.226;2022-09-23T04:58:28;96.78;;;33.30;;
58017;SDS011;43810;50.860;19.226;2022-09-23T05:00:54;111.68;;;36.40;;
58017;SDS011;43810;50.860;19.226;2022-09-23T05:03:20;102.85;;;34.05;;
58017;SDS011;43810;50.860;19.226;2022-09-23T05:05:45;80.25;;;30.13;;
58017;SDS011;43810;50.860;19.226;2022-09-23T05:08:11;79.97;;;32.13;;
58017;SDS011;43810;50.860;19.226;2022-09-23T05:10:37;99.05;;;31.95;;
58017;SDS011;43810;50.860;19.226;2022-09-23T05:13:04;89.93;;;33.15;;
58017;SDS011;43810;50.860;19.226;2022-09-23T05:15:29;93.45;;;31.25;;
58017;SDS011;43810;50.860;19.226;2022-09-23T05:17:58;101.05;;;31.70;;
58017;SDS011;43810;50.860;19.226;2022-09-23T05:20:23;100.78;;;36.70;;
58017;SDS011;43810;50.860;19.226;2022-09-23T05:22:49;97.68;;;32.35;;
58017;SDS011;43810;50.860;19.226;2022-09-23T05:25:15;97.10;;;32.55;;
58017;SDS011;43810;50.860;19.226;2022-09-23T05:27:41;101.05;;;33.47;;
58017;SDS011;43810;50.860;19.226;2022-09-23T05:30:06;90.10;;;32.03;;
58017;SDS011;43810;50.860;19.226;2022-09-23T05:32:32;96.28;;;33.05;;
58017;SDS011;43810;50.860;19.226;2022-09-23T05:34:58;96.82;;;33.83;;
58017;SDS011;43810;50.860;19.226;2022-09-23T05:37:23;97.93;;;33.17;;
58017;SDS011;43810;50.860;19.226;2022-09-23T05:39:49;108.40;;;34.40;;
58017;SDS011;43810;50.860;19.226;2022-09-23T05:42:15;114.00;;;36.13;;
58017;SDS011;43810;50.860;19.226;2022-09-23T05:44:42;111.40;;;35.10;;
58017;SDS011;43810;50.860;19.226;2022-09-23T05:47:08;130.85;;;38.53;;
58017;SDS011;43810;50.860;19.226;2022-09-23T05:49:33;118.22;;;34.53;;
58017;SDS011;43810;50.860;19.226;2022-09-23T05:52:01;108.28;;;33.40;;
58017;SDS011;43810;50.860;19.226;2022-09-23T05:54:26;98.57;;;31.42;;
58017;SDS011;43810;50.860;19.226;2022-09-23T05:56:52;87.18;;;31.70;;
58017;SDS011;43810;50.860;19.226;2022-09-23T05:59:18;116.53;;;33.40;;
58017;SDS011;43810;50.860;19.226;2022-09-23T06:01:43;110.55;;;33.80;;
58017;SDS011;43810;50.860;19.226;2022-09-23T06:04:10;111.10;;;32.15;;
58017;SDS011;43810;50.860;19.226;2022-09-23T06:06:38;74.03;;;29.48;;
58017;SDS011;43810;50.860;19.226;2022-09-23T06:09:04;84.20;;;32.53;;
58017;SDS011;43810;50.860;19.226;2022-09-23T06:11:30;85.78;;;30.75;;
58017;SDS011;43810;50.860;19.226;2022-09-23T06:13:57;81.97;;;29.70;;
58017;SDS011;43810;50.860;19.226;2022-09-23T06:16:26;70.72;;;27.15;;
58017;SDS011;43810;50.860;19.226;2022-09-23T06:18:52;58.92;;;26.33;;
58017;SDS011;43810;50.860;19.226;2022-09-23T06:21:18;79.15;;;30.23;;
58017;SDS011;43810;50.860;19.226;2022-09-23T06:23:44;63.05;;;25.13;;
58017;SDS011;43810;50.860;19.226;2022-09-23T06:26:28;98.57;;;32.05;;
58017;SDS011;43810;50.860;19.226;2022-09-23T06:28:57;95.75;;;27.00;;
58017;SDS011;43810;50.860;19.226;2022-09-23T06:31:22;85.93;;;26.73;;
58017;SDS011;43810;50.860;19.226;2022-09-23T06:33:48;75.20;;;25.48;;
58017;SDS011;43810;50.860;19.226;2022-09-23T06:36:14;77.95;;;24.95;;
58017;SDS011;43810;50.860;19.226;2022-09-23T06:38:40;79.85;;;27.85;;
58017;SDS011;43810;50.860;19.226;2022-09-23T06:41:06;74.78;;;25.92;;
58017;SDS011;43810;50.860;19.226;2022-09-23T06:43:32;121.53;;;28.33;;
58017;SDS011;43810;50.860;19.226;2022-09-23T06:45:59;67.95;;;24.88;;
58017;SDS011;43810;50.860;19.226;2022-09-23T06:48:25;116.38;;;28.50;;
58017;SDS011;43810;50.860;19.226;2022-09-23T06:50:51;70.90;;;26.27;;
58017;SDS011;43810;50.860;19.226;2022-09-23T06:53:18;87.85;;;23.42;;
58017;SDS011;43810;50.860;19.226;2022-09-23T06:55:44;94.80;;;24.95;;
58017;SDS011;43810;50.860;19.226;2022-09-23T06:58:10;39.75;;;21.40;;
58017;SDS011;43810;50.860;19.226;2022-09-23T07:00:35;45.55;;;20.15;;
58017;SDS011;43810;50.860;19.226;2022-09-23T07:03:05;41.70;;;17.75;;
58017;SDS011;43810;50.860;19.226;2022-09-23T07:05:30;45.45;;;20.80;;
58017;SDS011;43810;50.860;19.226;2022-09-23T07:07:59;38.67;;;17.80;;
58017;SDS011;43810;50.860;19.226;2022-09-23T07:10:25;32.25;;;16.05;;
58017;SDS011;43810;50.860;19.226;2022-09-23T07:12:52;29.38;;;15.10;;
58017;SDS011;43810;50.860;19.226;2022-09-23T07:15:17;40.60;;;18.48;;
58017;SDS011;43810;50.860;19.226;2022-09-23T07:17:43;24.35;;;14.25;;
58017;SDS011;43810;50.860;19.226;2022-09-23T07:20:09;30.25;;;16.90;;
58017;SDS011;43810;50.860;19.226;2022-09-23T07:22:36;37.72;;;18.77;;
58017;SDS011;43810;50.860;19.226;2022-09-23T07:25:02;38.45;;;20.48;;
58017;SDS011;43810;50.860;19.226;2022-09-23T07:27:28;33.03;;;19.38;;
58017;SDS011;43810;50.860;19.226;2022-09-23T07:29:54;39.20;;;22.20;;
58017;SDS011;43810;50.860;19.226;2022-09-23T07:32:19;35.00;;;19.65;;
58017;SDS011;43810;50.860;19.226;2022-09-23T07:34:46;28.50;;;17.52;;
58017;SDS011;43810;50.860;19.226;2022-09-23T07:37:12;32.60;;;16.85;;
58017;SDS011;43810;50.860;19.226;2022-09-23T07:39:38;28.27;;;17.05;;
58017;SDS011;43810;50.860;19.226;2022-09-23T07:42:05;22.10;;;12.05;;
58017;SDS011;43810;50.860;19.226;2022-09-23T07:44:31;20.00;;;12.25;;
58017;SDS011;43810;50.860;19.226;2022-09-23T07:46:57;21.45;;;12.88;;
58017;SDS011;43810;50.860;19.226;2022-09-23T07:49:23;23.23;;;13.32;;
58017;SDS011;43810;50.860;19.226;2022-09-23T07:51:48;16.98;;;11.30;;
58017;SDS011;43810;50.860;19.226;2022-09-23T07:54:14;20.95;;;12.27;;
58017;SDS011;43810;50.860;19.226;2022-09-23T07:56:41;13.23;;;9.75;;
58017;SDS011;43810;50.860;19.226;2022-09-23T07:59:07;19.58;;;11.02;;
58017;SDS011;43810;50.860;19.226;2022-09-23T08:01:35;16.05;;;10.25;;
58017;SDS011;43810;50.860;19.226;2022-09-23T08:04:03;13.95;;;8.40;;
58017;SDS011;43810;50.860;19.226;2022-09-23T08:06:29;15.82;;;9.45;;
58017;SDS011;43810;50.860;19.226;2022-09-23T08:08:56;16.13;;;9.48;;
58017;SDS011;43810;50.860;19.226;2022-09-23T08:11:22;17.95;;;9.93;;
58017;SDS011;43810;50.860;19.226;2022-09-23T08:13:49;17.05;;;9.73;;
58017;SDS011;43810;50.860;19.226;2022-09-23T08:16:14;23.40;;;11.95;;
58017;SDS011;43810;50.860;19.226;2022-09-23T08:18:43;28.50;;;14.32;;
58017;SDS011;43810;50.860;19.226;2022-09-23T08:21:09;24.85;;;13.65;;
58017;SDS011;43810;50.860;19.226;2022-09-23T08:23:35;24.50;;;13.85;;
58017;SDS011;43810;50.860;19.226;2022-09-23T08:26:03;26.83;;;14.50;;
58017;SDS011;43810;50.860;19.226;2022-09-23T08:28:29;19.63;;;11.27;;
58017;SDS011;43810;50.860;19.226;2022-09-23T08:30:55;24.05;;;12.48;;
58017;SDS011;43810;50.860;19.226;2022-09-23T08:33:21;26.38;;;15.27;;
58017;SDS011;43810;50.860;19.226;2022-09-23T08:35:47;22.27;;;12.05;;
58017;SDS011;43810;50.860;19.226;2022-09-23T08:38:12;44.10;;;19.88;;
58017;SDS011;43810;50.860;19.226;2022-09-23T08:40:39;28.23;;;13.63;;
58017;SDS011;43810;50.860;19.226;2022-09-23T08:43:06;42.58;;;20.15;;
58017;SDS011;43810;50.860;19.226;2022-09-23T08:45:33;43.03;;;20.42;;
58017;SDS011;43810;50.860;19.226;2022-09-23T08:48:01;34.92;;;18.90;;
58017;SDS011;43810;50.860;19.226;2022-09-23T08:50:46;38.08;;;17.20;;
58017;SDS011;43810;50.860;19.226;2022-09-23T08:53:34;27.65;;;13.82;;
58017;SDS011;43810;50.860;19.226;2022-09-23T08:55:59;37.30;;;16.20;;
58017;SDS011;43810;50.860;19.226;2022-09-23T08:58:52;23.25;;;12.75;;
58017;SDS011;43810;50.860;19.226;2022-09-23T09:03:57;24.27;;;9.18;;
58017;SDS011;43810;50.860;19.226;2022-09-23T09:08:56;10.40;;;5.57;;
58017;SDS011;43810;50.860;19.226;2022-09-23T09:11:30;14.90;;;6.45;;
58017;SDS011;43810;50.860;19.226;2022-09-23T09:14:09;12.05;;;6.78;;
58017;SDS011;43810;50.860;19.226;2022-09-23T09:16:55;4.80;;;2.80;;
58017;SDS011;43810;50.860;19.226;2022-09-23T09:21:56;9.05;;;4.13;;
58017;SDS011;43810;50.860;19.226;2022-09-23T09:24:28;4.88;;;2.95;;
58017;SDS011;43810;50.860;19.226;2022-09-23T09:26:56;4.13;;;3.28;;
58017;SDS011;43810;50.860;19.226;2022-09-23T09:29:23;3.33;;;2.88;;
58017;SDS011;43810;50.860;19.226;2022-09-23T09:31:49;4.28;;;2.80;;
58017;SDS011;43810;50.860;19.226;2022-09-23T09:39:29;5.00;;;3.63;;
58017;SDS011;43810;50.860;19.226;2022-09-23T09:41:55;3.40;;;2.28;;
58017;SDS011;43810;50.860;19.226;2022-09-23T09:44:39;5.53;;;2.78;;
58017;SDS011;43810;50.860;19.226;2022-09-23T09:50:03;3.70;;;2.85;;
58017;SDS011;43810;50.860;19.226;2022-09-23T09:52:29;5.18;;;2.13;;
58017;SDS011;43810;50.860;19.226;2022-09-23T09:57:43;3.92;;;2.25;;
58017;SDS011;43810;50.860;19.226;2022-09-23T10:00:18;10.93;;;4.40;;
58017;SDS011;43810;50.860;19.226;2022-09-23T10:02:44;3.42;;;2.10;;
58017;SDS011;43810;50.860;19.226;2022-09-23T10:05:31;2.65;;;2.40;;
58017;SDS011;43810;50.860;19.226;2022-09-23T10:10:49;1.98;;;1.58;;
58017;SDS011;43810;50.860;19.226;2022-09-23T10:13:17;3.55;;;2.85;;
58017;SDS011;43810;50.860;19.226;2022-09-23T10:15:43;1.70;;;1.40;;
58017;SDS011;43810;50.860;19.226;2022-09-23T10:18:19;1.75;;;1.60;;
58017;SDS011;43810;50.860;19.226;2022-09-23T10:20:46;1.88;;;1.73;;
58017;SDS011;43810;50.860;19.226;2022-09-23T10:23:17;1.33;;;1.23;;
58017;SDS011;43810;50.860;19.226;2022-09-23T10:25:54;3.47;;;2.55;;
58017;SDS011;43810;50.860;19.226;2022-09-23T10:28:30;5.25;;;3.15;;
58017;SDS011;43810;50.860;19.226;2022-09-23T10:31:12;1.67;;;1.40;;
58017;SDS011;43810;50.860;19.226;2022-09-23T10:33:48;1.00;;;0.90;;
58017;SDS011;43810;50.860;19.226;2022-09-23T10:36:18;2.80;;;1.60;;
58017;SDS011;43810;50.860;19.226;2022-09-23T10:38:43;2.90;;;1.67;;
58017;SDS011;43810;50.860;19.226;2022-09-23T10:47:50;1.20;;;1.10;;
58017;SDS011;43810;50.860;19.226;2022-09-23T10:50:30;2.40;;;1.50;;
58017;SDS011;43810;50.860;19.226;2022-09-23T11:08:57;3.03;;;1.35;;
58017;SDS011;43810;50.860;19.226;2022-09-23T11:11:34;3.45;;;1.80;;
58017;SDS011;43810;50.860;19.226;2022-09-23T11:17:00;5.30;;;2.35;;
58017;SDS011;43810;50.860;19.226;2022-09-23T11:24:58;2.47;;;1.90;;
58017;SDS011;43810;50.860;19.226;2022-09-23T11:34:50;2.80;;;1.50;;
58017;SDS011;43810;50.860;19.226;2022-09-23T11:37:26;3.42;;;1.73;;
58017;SDS011;43810;50.860;19.226;2022-09-23T11:40:02;2.25;;;1.70;;
58017;SDS011;43810;50.860;19.226;2022-09-23T11:42:30;2.97;;;1.60;;
58017;SDS011;43810;50.860;19.226;2022-09-23T11:44:58;2.50;;;1.70;;
58017;SDS011;43810;50.860;19.226;2022-09-23T11:47:28;1.88;;;1.50;;
58017;SDS011;43810;50.860;19.226;2022-09-23T11:49:59;1.55;;;1.30;;
58017;SDS011;43810;50.860;19.226;2022-09-23T11:52:39;1.73;;;1.55;;
58017;SDS011;43810;50.860;19.226;2022-09-23T11:55:08;1.83;;;1.40;;
58017;SDS011;43810;50.860;19.226;2022-09-23T11:57:40;4.38;;;2.00;;
58017;SDS011;43810;50.860;19.226;2022-09-23T12:00:11;2.97;;;1.90;;
58017;SDS011;43810;50.860;19.226;2022-09-23T12:05:09;2.88;;;1.10;;
58017;SDS011;43810;50.860;19.226;2022-09-23T12:10:06;3.90;;;2.50;;
58017;SDS011;43810;50.860;19.226;2022-09-23T12:20:26;4.57;;;2.20;;
58017;SDS011;43810;50.860;19.226;2022-09-23T12:23:14;2.40;;;1.73;;
58017;SDS011;43810;50.860;19.226;2022-09-23T12:25:44;1.85;;;1.55;;
58017;SDS011;43810;50.860;19.226;2022-09-23T12:28:14;3.58;;;1.45;;
58017;SDS011;43810;50.860;19.226;2022-09-23T12:30:40;2.58;;;1.63;;
58017;SDS011;43810;50.860;19.226;2022-09-23T12:33:23;1.67;;;1.35;;
58017;SDS011;43810;50.860;19.226;2022-09-23T12:35:51;2.30;;;1.30;;
58017;SDS011;43810;50.860;19.226;2022-09-23T12:38:22;2.42;;;1.20;;
58017;SDS011;43810;50.860;19.226;2022-09-23T12:40:49;2.03;;;1.30;;
58017;SDS011;43810;50.860;19.226;2022-09-23T12:43:26;2.67;;;1.42;;
58017;SDS011;43810;50.860;19.226;2022-09-23T12:49:00;1.50;;;1.30;;
58017;SDS011;43810;50.860;19.226;2022-09-23T12:51:27;1.42;;;1.10;;
58017;SDS011;43810;50.860;19.226;2022-09-23T12:53:54;2.00;;;1.30;;
58017;SDS011;43810;50.860;19.226;2022-09-23T12:56:24;1.30;;;1.20;;
58017;SDS011;43810;50.860;19.226;2022-09-23T12:59:01;3.30;;;1.27;;
58017;SDS011;43810;50.860;19.226;2022-09-23T13:01:34;1.33;;;1.00;;
58017;SDS011;43810;50.860;19.226;2022-09-23T13:04:00;2.17;;;1.10;;
58017;SDS011;43810;50.860;19.226;2022-09-23T13:09:21;2.42;;;1.38;;
58017;SDS011;43810;50.860;19.226;2022-09-23T13:11:49;1.27;;;0.90;;
58017;SDS011;43810;50.860;19.226;2022-09-23T13:14:18;6.85;;;1.58;;
58017;SDS011;43810;50.860;19.226;2022-09-23T13:16:46;3.20;;;1.20;;
58017;SDS011;43810;50.860;19.226;2022-09-23T13:26:43;1.95;;;1.70;;
58017;SDS011;43810;50.860;19.226;2022-09-23T13:29:12;3.10;;;2.00;;
58017;SDS011;43810;50.860;19.226;2022-09-23T13:31:41;2.58;;;1.88;;
58017;SDS011;43810;50.860;19.226;2022-09-23T13:34:06;3.40;;;1.60;;
58017;SDS011;43810;50.860;19.226;2022-09-23T13:36:43;7.07;;;3.08;;
58017;SDS011;43810;50.860;19.226;2022-09-23T13:39:12;3.38;;;1.92;;
58017;SDS011;43810;50.860;19.226;2022-09-23T13:41:38;3.53;;;1.88;;
58017;SDS011;43810;50.860;19.226;2022-09-23T13:44:04;1.70;;;1.30;;
58017;SDS011;43810;50.860;19.226;2022-09-23T13:46:32;1.88;;;1.42;;
58017;SDS011;43810;50.860;19.226;2022-09-23T13:48:59;2.83;;;2.17;;
58017;SDS011;43810;50.860;19.226;2022-09-23T13:51:29;3.15;;;2.00;;
58017;SDS011;43810;50.860;19.226;2022-09-23T13:53:56;2.53;;;1.98;;
58017;SDS011;43810;50.860;19.226;2022-09-23T13:56:23;2.65;;;1.92;;
58017;SDS011;43810;50.860;19.226;2022-09-23T13:58:49;2.60;;;1.60;;
58017;SDS011;43810;50.860;19.226;2022-09-23T14:01:33;1.38;;;1.10;;
58017;SDS011;43810;50.860;19.226;2022-09-23T14:03:59;2.45;;;1.50;;
58017;SDS011;43810;50.860;19.226;2022-09-23T14:06:25;2.28;;;1.63;;
58017;SDS011;43810;50.860;19.226;2022-09-23T14:08:51;2.13;;;1.52;;
58017;SDS011;43810;50.860;19.226;2022-09-23T14:11:19;1.90;;;1.20;;
58017;SDS011;43810;50.860;19.226;2022-09-23T14:13:46;1.88;;;1.42;;
58017;SDS011;43810;50.860;19.226;2022-09-23T14:16:13;1.98;;;1.10;;
58017;SDS011;43810;50.860;19.226;2022-09-23T14:18:40;2.70;;;1.50;;
58017;SDS011;43810;50.860;19.226;2022-09-23T14:23:51;3.95;;;1.80;;
58017;SDS011;43810;50.860;19.226;2022-09-23T14:26:17;2.92;;;1.65;;
58017;SDS011;43810;50.860;19.226;2022-09-23T14:28:42;4.07;;;1.95;;
58017;SDS011;43810;50.860;19.226;2022-09-23T14:31:08;2.67;;;2.03;;
58017;SDS011;43810;50.860;19.226;2022-09-23T14:33:37;3.25;;;1.77;;
58017;SDS011;43810;50.860;19.226;2022-09-23T14:36:04;2.72;;;2.42;;
58017;SDS011;43810;50.860;19.226;2022-09-23T14:38:32;3.28;;;1.83;;
58017;SDS011;43810;50.860;19.226;2022-09-23T14:41:21;2.35;;;1.55;;
58017;SDS011;43810;50.860;19.226;2022-09-23T14:46:20;1.88;;;1.63;;
58017;SDS011;43810;50.860;19.226;2022-09-23T14:48:52;3.03;;;1.60;;
58017;SDS011;43810;50.860;19.226;2022-09-23T14:51:19;3.33;;;2.05;;
58017;SDS011;43810;50.860;19.226;2022-09-23T14:53:45;3.90;;;1.83;;
58017;SDS011;43810;50.860;19.226;2022-09-23T14:56:29;4.60;;;1.92;;
58017;SDS011;43810;50.860;19.226;2022-09-23T14:58:59;3.65;;;2.10;;
58017;SDS011;43810;50.860;19.226;2022-09-23T15:03:52;2.30;;;1.60;;
58017;SDS011;43810;50.860;19.226;2022-09-23T15:06:18;2.47;;;1.58;;
58017;SDS011;43810;50.860;19.226;2022-09-23T15:08:47;4.20;;;1.95;;
58017;SDS011;43810;50.860;19.226;2022-09-23T15:11:12;4.30;;;2.35;;
58017;SDS011;43810;50.860;19.226;2022-09-23T15:13:39;4.18;;;1.75;;
58017;SDS011;43810;50.860;19.226;2022-09-23T15:16:05;1.75;;;1.58;;
58017;SDS011;43810;50.860;19.226;2022-09-23T15:18:32;2.30;;;1.73;;
58017;SDS011;43810;50.860;19.226;2022-09-23T15:21:06;3.97;;;1.65;;
58017;SDS011;43810;50.860;19.226;2022-09-23T15:26:01;4.75;;;2.30;;
58017;SDS011;43810;50.860;19.226;2022-09-23T15:28:29;5.18;;;2.40;;
58017;SDS011;43810;50.860;19.226;2022-09-23T15:30:54;3.92;;;2.17;;
58017;SDS011;43810;50.860;19.226;2022-09-23T15:33:20;6.15;;;2.47;;
58017;SDS011;43810;50.860;19.226;2022-09-23T15:35:52;6.13;;;2.88;;
58017;SDS011;43810;50.860;19.226;2022-09-23T15:38:21;7.13;;;3.22;;
58017;SDS011;43810;50.860;19.226;2022-09-23T15:40:48;4.75;;;2.60;;
58017;SDS011;43810;50.860;19.226;2022-09-23T15:45:49;5.25;;;3.25;;
58017;SDS011;43810;50.860;19.226;2022-09-23T15:48:16;3.03;;;2.40;;
58017;SDS011;43810;50.860;19.226;2022-09-23T15:50:43;3.97;;;3.28;;
58017;SDS011;43810;50.860;19.226;2022-09-23T15:53:12;11.52;;;8.23;;
58017;SDS011;43810;50.860;19.226;2022-09-23T15:55:38;14.50;;;9.85;;
58017;SDS011;43810;50.860;19.226;2022-09-23T15:58:04;14.15;;;8.88;;
58017;SDS011;43810;50.860;19.226;2022-09-23T16:00:29;9.10;;;6.32;;
58017;SDS011;43810;50.860;19.226;2022-09-23T16:02:55;7.40;;;4.60;;
58017;SDS011;43810;50.860;19.226;2022-09-23T16:05:30;6.90;;;3.88;;
58017;SDS011;43810;50.860;19.226;2022-09-23T16:07:59;21.83;;;10.38;;
58017;SDS011;43810;50.860;19.226;2022-09-23T16:10:24;9.57;;;6.05;;
58017;SDS011;43810;50.860;19.226;2022-09-23T16:12:51;8.98;;;4.32;;
58017;SDS011;43810;50.860;19.226;2022-09-23T16:15:18;6.47;;;4.20;;
58017;SDS011;43810;50.860;19.226;2022-09-23T16:17:44;8.40;;;4.97;;
58017;SDS011;43810;50.860;19.226;2022-09-23T16:20:10;8.57;;;5.45;;
58017;SDS011;43810;50.860;19.226;2022-09-23T16:22:37;9.40;;;6.10;;
58017;SDS011;43810;50.860;19.226;2022-09-23T16:25:03;14.65;;;8.40;;
58017;SDS011;43810;50.860;19.226;2022-09-23T16:27:30;11.88;;;7.55;;
58017;SDS011;43810;50.860;19.226;2022-09-23T16:29:56;14.65;;;7.95;;
58017;SDS011;43810;50.860;19.226;2022-09-23T16:32:22;16.63;;;8.65;;
58017;SDS011;43810;50.860;19.226;2022-09-23T16:34:48;15.35;;;8.45;;
58017;SDS011;43810;50.860;19.226;2022-09-23T16:37:14;15.93;;;8.40;;
58017;SDS011;43810;50.860;19.226;2022-09-23T16:39:42;14.10;;;7.93;;
58017;SDS011;43810;50.860;19.226;2022-09-23T16:42:08;16.00;;;7.80;;
58017;SDS011;43810;50.860;19.226;2022-09-23T16:44:34;13.23;;;7.43;;
58017;SDS011;43810;50.860;19.226;2022-09-23T16:47:01;14.35;;;7.72;;
58017;SDS011;43810;50.860;19.226;2022-09-23T16:49:27;14.27;;;6.75;;
58017;SDS011;43810;50.860;19.226;2022-09-23T16:51:52;14.45;;;7.82;;
58017;SDS011;43810;50.860;19.226;2022-09-23T16:54:18;13.88;;;8.23;;
58017;SDS011;43810;50.860;19.226;2022-09-23T16:56:44;13.50;;;7.47;;
58017;SDS011;43810;50.860;19.226;2022-09-23T16:59:11;14.25;;;8.40;;